Time,TemperatureF,DewpointF,PressureIn,WindDirection,WindDirectionDegrees,WindSpeedMPH,WindSpeedGustMPH,Humidity,HourlyPrecipIn,Conditions,Clouds,dailyrainin,SolarRadiationWatts/m^2,SoftwareType,DateUTC
2013-02-04 00:11:00,13.4,12.0,30.21,ESE,109,2.0,3.0,92,0.00,,,0.00,0,weatherlink.com 1.10,2013-02-04 07:11:00,
2013-02-04 00:26:00,13.5,12.0,30.20,ESE,109,0.0,2.0,92,0.00,,,0.00,0,weatherlink.com 1.10,2013-02-04 07:26:00,
2013-02-04 00:40:00,12.9,11.0,30.20,ESE,109,0.0,2.0,91,0.00,,,0.00,0,weatherlink.com 1.10,2013-02-04 07:40:00,
2013-02-04 00:56:00,11.6,9.0,30.19,ESE,109,2.0,2.0,88,0.00,,,0.00,0,weatherlink.com 1.10,2013-02-04 07:56:00,
2013-02-04 01:11:00,11.4,9.0,30.18,East,88,5.0,6.0,91,0.00,,,0.00,0,weatherlink.com 1.10,2013-02-04 08:11:00,
2013-02-04 01:26:00,12.3,10.0,30.18,ESE,109,5.0,7.0,92,0.00,,,0.00,0,weatherlink.com 1.10,2013-02-04 08:26:00,
2013-02-04 01:42:00,13.1,11.0,30.17,ESE,107,3.0,6.0,92,0.00,,,0.00,0,weatherlink.com 1.10,2013-02-04 08:42:00,
2013-02-04 01:56:00,13.7,12.0,30.17,ESE,105,3.0,4.0,92,0.00,,,0.00,0,weatherlink.com 1.10,2013-02-04 08:56:00,
2013-02-04 02:11:00,15.1,14.0,30.16,ESE,114,2.0,5.0,93,0.00,,,0.00,0,weatherlink.com 1.10,2013-02-04 09:11:00,
2013-02-04 02:27:00,16.0,14.0,30.17,SE,132,2.0,4.0,93,0.00,,,0.00,0,weatherlink.com 1.10,2013-02-04 09:27:00,
2013-02-04 02:42:00,16.1,14.0,30.16,East,101,2.0,5.0,92,0.00,,,0.00,0,weatherlink.com 1.10,2013-02-04 09:42:00,
2013-02-04 03:12:00,16.9,15.0,30.13,East,101,3.0,7.0,93,0.00,,,0.00,0,weatherlink.com 1.10,2013-02-04 10:12:00,
2013-02-04 03:42:00,19.1,17.0,30.12,East,96,3.0,7.0,93,0.00,,,0.00,0,weatherlink.com 1.10,2013-02-04 10:42:00,
2013-02-04 04:12:00,19.8,18.0,30.11,ESE,111,5.0,8.0,93,0.00,,,0.00,0,weatherlink.com 1.10,2013-02-04 11:12:00,
2013-02-04 04:28:00,19.8,18.0,30.10,East,90,7.0,11.0,93,0.00,,,0.00,0,weatherlink.com 1.10,2013-02-04 11:28:00,
2013-02-04 04:41:00,20.2,19.0,30.09,ENE,75,8.0,9.0,93,0.00,,,0.00,0,weatherlink.com 1.10,2013-02-04 11:41:00,
2013-02-04 04:57:00,20.7,19.0,30.09,ENE,62,7.0,9.0,93,0.00,,,0.00,0,weatherlink.com 1.10,2013-02-04 11:57:00,
2013-02-04 05:12:00,21.3,20.0,30.09,ESE,107,2.0,7.0,93,0.00,,,0.00,0,weatherlink.com 1.10,2013-02-04 12:12:00,
2013-02-04 05:28:00,21.5,20.0,30.07,East,97,3.0,5.0,93,0.00,,,0.00,0,weatherlink.com 1.10,2013-02-04 12:28:00,
2013-02-04 05:42:00,21.6,20.0,30.07,ESE,113,1.0,5.0,93,0.00,,,0.00,0,weatherlink.com 1.10,2013-02-04 12:42:00,
2013-02-04 05:57:00,21.8,20.0,30.07,East,91,1.0,3.0,93,0.00,,,0.00,0,weatherlink.com 1.10,2013-02-04 12:57:00,
2013-02-04 06:13:00,21.7,20.0,30.07,East,91,1.0,2.0,93,0.00,,,0.00,0,weatherlink.com 1.10,2013-02-04 13:13:00,
2013-02-04 06:27:00,-999.0,-99.9,30.05,North,-999,-999.0,-999.0,-999,0.00,,,0.00,,weatherlink.com 1.10,2013-02-04 13:27:00,
2013-02-04 06:42:00,-999.0,-99.9,30.05,North,-999,-999.0,-999.0,-999,0.00,,,0.00,,weatherlink.com 1.10,2013-02-04 13:42:00,
2013-02-04 06:58:00,-999.0,-99.9,30.04,North,-999,-999.0,-999.0,-999,0.00,,,0.00,,weatherlink.com 1.10,2013-02-04 13:58:00,
2013-02-04 07:13:00,-999.0,-99.9,30.03,North,-999,-999.0,-999.0,-999,0.00,,,0.00,,weatherlink.com 1.10,2013-02-04 14:13:00,
2013-02-04 07:28:00,-999.0,-99.9,30.02,North,-999,-999.0,-999.0,-999,0.00,,,0.00,,weatherlink.com 1.10,2013-02-04 14:28:00,
2013-02-04 07:43:00,-999.0,-99.9,30.01,North,-999,-999.0,-999.0,-999,0.00,,,0.00,,weatherlink.com 1.10,2013-02-04 14:43:00,
2013-02-04 07:58:00,-999.0,-99.9,30.01,North,-999,-999.0,-999.0,-999,0.00,,,0.00,,weatherlink.com 1.10,2013-02-04 14:58:00,
2013-02-04 08:13:00,-999.0,-99.9,30.01,North,-999,-999.0,-999.0,-999,0.00,,,0.00,,weatherlink.com 1.10,2013-02-04 15:13:00,
2013-02-04 08:28:00,21.5,20.0,30.01,NE,41,0.0,2.0,93,0.00,,,0.00,67,weatherlink.com 1.10,2013-02-04 15:28:00,
2013-02-04 08:43:00,21.5,20.0,30.01,NE,41,0.0,2.0,93,0.00,,,0.00,77,weatherlink.com 1.10,2013-02-04 15:43:00,
2013-02-04 08:58:00,21.5,20.0,30.02,NE,41,1.0,3.0,93,0.00,,,0.00,114,weatherlink.com 1.10,2013-02-04 15:58:00,
2013-02-04 09:13:00,22.6,21.0,30.02,NE,41,0.0,2.0,94,0.00,,,0.00,148,weatherlink.com 1.10,2013-02-04 16:13:00,
2013-02-04 09:28:00,24.3,23.0,30.01,NE,41,0.0,1.0,94,0.00,,,0.00,151,weatherlink.com 1.10,2013-02-04 16:28:00,
2013-02-04 09:43:00,25.6,24.0,30.01,NNW,329,2.0,5.0,93,0.00,,,0.00,186,weatherlink.com 1.10,2013-02-04 16:43:00,
2013-02-04 09:58:00,26.5,24.0,30.00,NW,326,1.0,2.0,91,0.00,,,0.00,209,weatherlink.com 1.10,2013-02-04 16:58:00,
2013-02-04 10:13:00,27.7,25.0,30.00,NW,321,4.0,4.0,90,0.00,,,0.00,250,weatherlink.com 1.10,2013-02-04 17:13:00,
2013-02-04 10:28:00,29.3,27.0,30.01,NW,320,6.0,8.0,89,0.00,,,0.00,246,weatherlink.com 1.10,2013-02-04 17:28:00,
2013-02-04 10:44:00,30.3,27.0,30.01,NW,322,5.0,8.0,86,0.00,,,0.00,292,weatherlink.com 1.10,2013-02-04 17:44:00,
2013-02-04 10:58:00,31.6,28.0,30.00,WNW,299,4.0,7.0,85,0.00,,,0.00,207,weatherlink.com 1.10,2013-02-04 17:58:00,
2013-02-04 11:13:00,33.4,29.0,30.00,NW,310,6.0,10.0,83,0.00,,,0.00,308,weatherlink.com 1.10,2013-02-04 18:13:00,
2013-02-04 11:29:00,34.5,29.0,29.99,West,281,7.0,15.0,80,0.00,,,0.00,441,weatherlink.com 1.10,2013-02-04 18:29:00,
2013-02-04 11:43:00,35.1,29.0,29.99,WNW,294,10.0,14.0,79,0.00,,,0.00,438,weatherlink.com 1.10,2013-02-04 18:43:00,
2013-02-04 11:59:00,35.5,30.0,29.98,NW,307,10.0,11.0,80,0.00,,,0.00,466,weatherlink.com 1.10,2013-02-04 18:59:00,
2013-02-04 12:14:00,35.7,30.0,29.98,NW,322,8.0,11.0,81,0.00,,,0.00,471,weatherlink.com 1.10,2013-02-04 19:14:00,
2013-02-04 12:29:00,35.6,30.0,29.98,NW,314,11.0,13.0,81,0.00,,,0.00,473,weatherlink.com 1.10,2013-02-04 19:29:00,
2013-02-04 12:44:00,36.7,31.0,29.98,NW,313,9.0,12.0,80,0.00,,,0.00,469,weatherlink.com 1.10,2013-02-04 19:44:00,
2013-02-04 12:59:00,38.2,32.0,29.98,NW,319,7.0,13.0,79,0.00,,,0.00,466,weatherlink.com 1.10,2013-02-04 19:59:00,
2013-02-04 13:14:00,39.5,33.0,29.97,NW,313,8.0,14.0,76,0.00,,,0.00,459,weatherlink.com 1.10,2013-02-04 20:14:00,
2013-02-04 13:30:00,40.0,33.0,29.96,NNW,331,5.0,14.0,75,0.00,,,0.00,445,weatherlink.com 1.10,2013-02-04 20:30:00,
2013-02-04 13:44:00,40.2,33.0,29.96,West,275,9.0,15.0,74,0.00,,,0.00,425,weatherlink.com 1.10,2013-02-04 20:44:00,
2013-02-04 14:00:00,40.0,33.0,29.95,West,279,6.0,14.0,75,0.00,,,0.00,410,weatherlink.com 1.10,2013-02-04 21:00:00,
2013-02-04 14:15:00,40.5,32.0,29.94,WNW,292,6.0,14.0,73,0.00,,,0.00,387,weatherlink.com 1.10,2013-02-04 21:15:00,
2013-02-04 14:30:00,40.7,33.0,29.94,WNW,284,11.0,13.0,73,0.00,,,0.00,364,weatherlink.com 1.10,2013-02-04 21:30:00,
2013-02-04 15:16:00,41.0,33.0,29.95,NW,308,7.0,12.0,72,0.00,,,0.00,271,weatherlink.com 1.10,2013-02-04 22:16:00,
2013-02-04 15:46:00,39.8,32.0,29.95,WNW,289,8.0,11.0,75,0.00,,,0.00,176,weatherlink.com 1.10,2013-02-04 22:46:00,
2013-02-04 16:00:00,39.6,32.0,29.95,NW,311,6.0,10.0,75,0.00,,,0.00,137,weatherlink.com 1.10,2013-02-04 23:00:00,
2013-02-04 16:14:00,39.0,32.0,29.94,WNW,299,5.0,10.0,76,0.00,,,0.00,93,weatherlink.com 1.10,2013-02-04 23:14:00,
2013-02-04 16:29:00,38.2,32.0,29.94,North,355,7.0,12.0,78,0.00,,,0.00,58,weatherlink.com 1.10,2013-02-04 23:29:00,
2013-02-04 16:45:00,37.8,32.0,29.94,NNW,331,8.0,11.0,78,0.00,,,0.00,26,weatherlink.com 1.10,2013-02-04 23:45:00,
2013-02-04 16:59:00,36.0,31.0,29.95,NW,320,6.0,9.0,81,0.00,,,0.00,9,weatherlink.com 1.10,2013-02-04 23:59:00,
2013-02-04 17:15:00,35.6,31.0,29.95,NNW,338,5.0,10.0,82,0.00,,,0.00,0,weatherlink.com 1.10,2013-02-05 00:15:00,
2013-02-04 17:29:00,36.9,31.0,29.95,NNW,340,7.0,13.0,80,0.00,,,0.00,0,weatherlink.com 1.10,2013-02-05 00:29:00,
2013-02-04 17:45:00,36.1,31.0,29.96,NW,315,5.0,11.0,81,0.00,,,0.00,0,weatherlink.com 1.10,2013-02-05 00:45:00,
2013-02-04 18:00:00,35.2,30.0,29.97,NW,315,6.0,10.0,82,0.00,,,0.00,0,weatherlink.com 1.10,2013-02-05 01:00:00,
2013-02-04 18:15:00,33.9,30.0,29.97,NW,317,7.0,9.0,84,0.00,,,0.00,0,weatherlink.com 1.10,2013-02-05 01:15:00,
2013-02-04 18:30:00,32.2,29.0,29.98,NNW,327,8.0,9.0,86,0.00,,,0.00,0,weatherlink.com 1.10,2013-02-05 01:30:00,
2013-02-04 18:45:00,30.5,27.0,30.00,NW,313,6.0,8.0,87,0.00,,,0.00,0,weatherlink.com 1.10,2013-02-05 01:45:00,
2013-02-04 19:00:00,30.7,28.0,30.00,NW,306,5.0,7.0,89,0.00,,,0.00,0,weatherlink.com 1.10,2013-02-05 02:00:00,
2013-02-04 19:15:00,31.3,28.0,30.01,NW,325,7.0,8.0,88,0.00,,,0.00,0,weatherlink.com 1.10,2013-02-05 02:15:00,
2013-02-04 19:30:00,31.7,28.0,30.02,WNW,296,5.0,10.0,86,0.00,,,0.00,0,weatherlink.com 1.10,2013-02-05 02:30:00,
2013-02-04 19:45:00,32.0,28.0,30.02,WNW,298,10.0,14.0,84,0.00,,,0.00,0,weatherlink.com 1.10,2013-02-05 02:45:00,
2013-02-04 20:00:00,31.2,28.0,30.03,WNW,291,5.0,9.0,86,0.00,,,0.00,0,weatherlink.com 1.10,2013-02-05 03:00:00,
2013-02-04 20:15:00,30.9,27.0,30.04,NW,321,5.0,7.0,86,0.00,,,0.00,0,weatherlink.com 1.10,2013-02-05 03:15:00,
2013-02-04 20:30:00,30.6,27.0,30.04,NW,324,2.0,6.0,87,0.00,,,0.00,0,weatherlink.com 1.10,2013-02-05 03:30:00,
2013-02-04 20:45:00,30.9,27.0,30.05,West,278,3.0,8.0,86,0.00,,,0.00,0,weatherlink.com 1.10,2013-02-05 03:45:00,
2013-02-04 21:00:00,30.2,27.0,30.05,NW,307,2.0,7.0,86,0.00,,,0.00,0,weatherlink.com 1.10,2013-02-05 04:00:00,
2013-02-04 21:16:00,29.4,26.0,30.07,NW,310,3.0,8.0,87,0.00,,,0.00,0,weatherlink.com 1.10,2013-02-05 04:16:00,
2013-02-04 21:31:00,29.6,26.0,30.07,WNW,282,5.0,8.0,87,0.00,,,0.00,0,weatherlink.com 1.10,2013-02-05 04:31:00,
2013-02-04 21:46:00,29.3,26.0,30.07,West,275,3.0,9.0,86,0.00,,,0.00,0,weatherlink.com 1.10,2013-02-05 04:46:00,
2013-02-04 22:01:00,29.6,26.0,30.07,WNW,284,8.0,9.0,87,0.00,,,0.00,0,weatherlink.com 1.10,2013-02-05 05:01:00,
2013-02-04 22:15:00,31.4,27.0,30.07,WNW,299,6.0,14.0,83,0.00,,,0.00,0,weatherlink.com 1.10,2013-02-05 05:15:00,
2013-02-04 22:32:00,30.2,26.0,30.08,NW,313,7.0,9.0,84,0.00,,,0.00,0,weatherlink.com 1.10,2013-02-05 05:32:00,
2013-02-04 22:47:00,29.6,25.0,30.09,NW,323,6.0,9.0,84,0.00,,,0.00,0,weatherlink.com 1.10,2013-02-05 05:47:00,
2013-02-04 23:01:00,30.1,26.0,30.10,West,281,6.0,13.0,85,0.00,,,0.00,0,weatherlink.com 1.10,2013-02-05 06:01:00,
2013-02-04 23:16:00,31.6,26.0,30.10,NW,321,3.0,13.0,80,0.00,,,0.00,0,weatherlink.com 1.10,2013-02-05 06:16:00,
2013-02-04 23:31:00,32.2,26.0,30.11,NW,304,8.0,11.0,78,0.00,,,0.00,0,weatherlink.com 1.10,2013-02-05 06:31:00,
2013-02-04 23:47:00,32.0,26.0,30.11,WNW,302,7.0,10.0,79,0.00,,,0.00,0,weatherlink.com 1.10,2013-02-05 06:47:00,